sensor_id;sensor_type;location;lat;lon;timestamp;P1;durP1;ratioP1;P2;durP2;ratioP2
2872;SDS011;1444;49.166;7.312;2022-07-17T00:00:17;3.90;;;2.93;;
2872;SDS011;1444;49.166;7.312;2022-07-17T00:02:44;6.80;;;3.67;;
2872;SDS011;1444;49.166;7.312;2022-07-17T00:05:14;4.23;;;3.27;;
2872;SDS011;1444;49.166;7.312;2022-07-17T00:07:41;5.20;;;3.33;;
2872;SDS011;1444;49.166;7.312;2022-07-17T00:10:08;3.37;;;3.07;;
2872;SDS011;1444;49.166;7.312;2022-07-17T00:12:35;8.77;;;3.17;;
2872;SDS011;1444;49.166;7.312;2022-07-17T00:15:02;3.90;;;2.97;;
2872;SDS011;1444;49.166;7.312;2022-07-17T00:17:29;6.33;;;2.90;;
2872;SDS011;1444;49.166;7.312;2022-07-17T00:19:56;2.60;;;2.13;;
2872;SDS011;1444;49.166;7.312;2022-07-17T00:22:24;5.00;;;2.97;;
2872;SDS011;1444;49.166;7.312;2022-07-17T00:24:52;3.93;;;3.00;;
2872;SDS011;1444;49.166;7.312;2022-07-17T00:27:19;6.43;;;3.37;;
2872;SDS011;1444;49.166;7.312;2022-07-17T00:29:46;13.60;;;2.80;;
2872;SDS011;1444;49.166;7.312;2022-07-17T00:32:12;5.20;;;3.50;;
2872;SDS011;1444;49.166;7.312;2022-07-17T00:34:39;3.83;;;3.43;;
2872;SDS011;1444;49.166;7.312;2022-07-17T00:37:06;4.13;;;3.27;;
2872;SDS011;1444;49.166;7.312;2022-07-17T00:39:34;3.17;;;2.87;;
2872;SDS011;1444;49.166;7.312;2022-07-17T00:42:00;2.97;;;2.67;;
2872;SDS011;1444;49.166;7.312;2022-07-17T00:44:27;4.47;;;3.17;;
2872;SDS011;1444;49.166;7.312;2022-07-17T00:46:54;8.20;;;3.10;;
2872;SDS011;1444;49.166;7.312;2022-07-17T00:49:21;4.67;;;3.30;;
2872;SDS011;1444;49.166;7.312;2022-07-17T00:51:47;5.50;;;3.70;;
2872;SDS011;1444;49.166;7.312;2022-07-17T00:54:14;3.83;;;3.47;;
2872;SDS011;1444;49.166;7.312;2022-07-17T00:56:45;5.73;;;3.17;;
2872;SDS011;1444;49.166;7.312;2022-07-17T00:59:13;3.70;;;3.10;;
2872;SDS011;1444;49.166;7.312;2022-07-17T01:01:41;4.30;;;3.40;;
2872;SDS011;1444;49.166;7.312;2022-07-17T01:04:08;4.93;;;3.80;;
2872;SDS011;1444;49.166;7.312;2022-07-17T01:06:34;5.43;;;3.60;;
2872;SDS011;1444;49.166;7.312;2022-07-17T01:09:01;5.53;;;4.30;;
2872;SDS011;1444;49.166;7.312;2022-07-17T01:11:28;4.10;;;3.70;;
2872;SDS011;1444;49.166;7.312;2022-07-17T01:13:57;3.90;;;3.50;;
2872;SDS011;1444;49.166;7.312;2022-07-17T01:16:23;9.50;;;4.10;;
2872;SDS011;1444;49.166;7.312;2022-07-17T01:18:50;5.83;;;3.90;;
2872;SDS011;1444;49.166;7.312;2022-07-17T01:21:20;3.43;;;3.13;;
2872;SDS011;1444;49.166;7.312;2022-07-17T01:23:46;5.67;;;3.10;;
2872;SDS011;1444;49.166;7.312;2022-07-17T01:26:13;4.17;;;3.10;;
2872;SDS011;1444;49.166;7.312;2022-07-17T01:28:40;6.63;;;4.40;;
2872;SDS011;1444;49.166;7.312;2022-07-17T01:31:06;3.50;;;3.20;;
2872;SDS011;1444;49.166;7.312;2022-07-17T01:33:33;5.13;;;3.43;;
2872;SDS011;1444;49.166;7.312;2022-07-17T01:36:00;3.43;;;3.13;;
2872;SDS011;1444;49.166;7.312;2022-07-17T01:38:28;5.23;;;4.40;;
2872;SDS011;1444;49.166;7.312;2022-07-17T01:40:55;5.13;;;4.20;;
2872;SDS011;1444;49.166;7.312;2022-07-17T01:43:21;4.03;;;3.67;;
2872;SDS011;1444;49.166;7.312;2022-07-17T01:45:48;6.07;;;5.50;;
2872;SDS011;1444;49.166;7.312;2022-07-17T01:48:22;19.70;;;5.37;;
2872;SDS011;1444;49.166;7.312;2022-07-17T01:50:53;3.43;;;2.97;;
2872;SDS011;1444;49.166;7.312;2022-07-17T01:53:19;4.83;;;4.17;;
2872;SDS011;1444;49.166;7.312;2022-07-17T01:55:47;5.07;;;4.57;;
2872;SDS011;1444;49.166;7.312;2022-07-17T01:58:15;5.87;;;3.27;;
2872;SDS011;1444;49.166;7.312;2022-07-17T02:00:42;7.63;;;3.50;;
2872;SDS011;1444;49.166;7.312;2022-07-17T02:03:09;3.40;;;3.10;;
2872;SDS011;1444;49.166;7.312;2022-07-17T02:05:35;4.27;;;3.87;;
2872;SDS011;1444;49.166;7.312;2022-07-17T02:08:02;3.23;;;2.90;;
2872;SDS011;1444;49.166;7.312;2022-07-17T02:10:29;4.20;;;3.47;;
2872;SDS011;1444;49.166;7.312;2022-07-17T02:12:57;2.90;;;2.60;;
2872;SDS011;1444;49.166;7.312;2022-07-17T02:15:24;3.50;;;3.20;;
2872;SDS011;1444;49.166;7.312;2022-07-17T02:17:51;3.73;;;3.43;;
2872;SDS011;1444;49.166;7.312;2022-07-17T02:20:18;4.53;;;3.13;;
2872;SDS011;1444;49.166;7.312;2022-07-17T02:22:45;5.27;;;4.17;;
2872;SDS011;1444;49.166;7.312;2022-07-17T02:25:12;4.13;;;3.70;;
2872;SDS011;1444;49.166;7.312;2022-07-17T02:27:40;6.17;;;4.07;;
2872;SDS011;1444;49.166;7.312;2022-07-17T02:30:10;4.17;;;3.63;;
2872;SDS011;1444;49.166;7.312;2022-07-17T02:32:38;5.87;;;4.77;;
2872;SDS011;1444;49.166;7.312;2022-07-17T02:35:07;3.80;;;3.30;;
2872;SDS011;1444;49.166;7.312;2022-07-17T02:37:34;6.47;;;3.07;;
2872;SDS011;1444;49.166;7.312;2022-07-17T02:40:02;4.57;;;3.50;;
2872;SDS011;1444;49.166;7.312;2022-07-17T02:42:29;5.10;;;3.60;;
2872;SDS011;1444;49.166;7.312;2022-07-17T02:44:57;2.90;;;2.70;;
2872;SDS011;1444;49.166;7.312;2022-07-17T02:47:26;4.57;;;3.80;;
2872;SDS011;1444;49.166;7.312;2022-07-17T02:49:55;7.80;;;5.13;;
2872;SDS011;1444;49.166;7.312;2022-07-17T02:52:21;4.30;;;3.53;;
2872;SDS011;1444;49.166;7.312;2022-07-17T02:54:49;6.43;;;5.27;;
2872;SDS011;1444;49.166;7.312;2022-07-17T02:57:16;5.63;;;3.97;;
2872;SDS011;1444;49.166;7.312;2022-07-17T02:59:43;5.33;;;4.80;;
2872;SDS011;1444;49.166;7.312;2022-07-17T03:02:10;2.93;;;2.63;;
2872;SDS011;1444;49.166;7.312;2022-07-17T03:04:38;4.23;;;3.83;;
2872;SDS011;1444;49.166;7.312;2022-07-17T03:07:05;4.33;;;3.17;;
2872;SDS011;1444;49.166;7.312;2022-07-17T03:09:32;4.80;;;4.37;;
2872;SDS011;1444;49.166;7.312;2022-07-17T03:11:59;3.70;;;3.40;;
2872;SDS011;1444;49.166;7.312;2022-07-17T03:14:25;3.20;;;2.90;;
2872;SDS011;1444;49.166;7.312;2022-07-17T03:16:52;5.23;;;4.00;;
2872;SDS011;1444;49.166;7.312;2022-07-17T03:19:19;3.67;;;3.37;;
2872;SDS011;1444;49.166;7.312;2022-07-17T03:21:47;4.20;;;3.90;;
2872;SDS011;1444;49.166;7.312;2022-07-17T03:24:14;5.33;;;3.53;;
2872;SDS011;1444;49.166;7.312;2022-07-17T03:26:40;6.87;;;5.27;;
2872;SDS011;1444;49.166;7.312;2022-07-17T03:29:07;3.67;;;3.17;;
2872;SDS011;1444;49.166;7.312;2022-07-17T03:31:34;5.03;;;3.53;;
2872;SDS011;1444;49.166;7.312;2022-07-17T03:34:01;4.50;;;3.33;;
2872;SDS011;1444;49.166;7.312;2022-07-17T03:36:27;4.33;;;3.90;;
2872;SDS011;1444;49.166;7.312;2022-07-17T03:38:55;4.00;;;3.60;;
2872;SDS011;1444;49.166;7.312;2022-07-17T03:41:22;8.30;;;4.73;;
2872;SDS011;1444;49.166;7.312;2022-07-17T03:43:49;5.67;;;5.17;;
2872;SDS011;1444;49.166;7.312;2022-07-17T03:46:15;5.40;;;4.00;;
2872;SDS011;1444;49.166;7.312;2022-07-17T03:48:42;6.80;;;5.77;;
2872;SDS011;1444;49.166;7.312;2022-07-17T03:51:09;5.77;;;3.67;;
2872;SDS011;1444;49.166;7.312;2022-07-17T03:53:35;3.93;;;3.60;;
2872;SDS011;1444;49.166;7.312;2022-07-17T03:56:04;4.40;;;3.83;;
2872;SDS011;1444;49.166;7.312;2022-07-17T03:58:31;8.07;;;4.80;;
2872;SDS011;1444;49.166;7.312;2022-07-17T04:00:58;4.80;;;3.70;;
2872;SDS011;1444;49.166;7.312;2022-07-17T04:03:25;7.20;;;4.57;;
2872;SDS011;1444;49.166;7.312;2022-07-17T04:05:52;5.00;;;4.60;;
2872;SDS011;1444;49.166;7.312;2022-07-17T04:08:18;4.00;;;3.70;;
2872;SDS011;1444;49.166;7.312;2022-07-17T04:10:45;5.97;;;4.97;;
2872;SDS011;1444;49.166;7.312;2022-07-17T04:13:13;4.30;;;3.90;;
2872;SDS011;1444;49.166;7.312;2022-07-17T04:15:40;3.97;;;3.10;;
2872;SDS011;1444;49.166;7.312;2022-07-17T04:18:18;5.50;;;3.70;;
2872;SDS011;1444;49.166;7.312;2022-07-17T04:20:46;5.47;;;4.97;;
2872;SDS011;1444;49.166;7.312;2022-07-17T04:23:13;6.83;;;2.90;;
2872;SDS011;1444;49.166;7.312;2022-07-17T04:25:41;4.60;;;4.20;;
2872;SDS011;1444;49.166;7.312;2022-07-17T04:28:09;4.20;;;3.60;;
2872;SDS011;1444;49.166;7.312;2022-07-17T04:30:38;4.73;;;4.30;;
2872;SDS011;1444;49.166;7.312;2022-07-17T04:33:05;3.67;;;3.00;;
2872;SDS011;1444;49.166;7.312;2022-07-17T04:35:33;4.53;;;3.83;;
2872;SDS011;1444;49.166;7.312;2022-07-17T04:38:00;4.13;;;3.00;;
2872;SDS011;1444;49.166;7.312;2022-07-17T04:40:27;9.80;;;4.57;;
2872;SDS011;1444;49.166;7.312;2022-07-17T04:42:54;13.10;;;4.73;;
2872;SDS011;1444;49.166;7.312;2022-07-17T04:45:21;6.90;;;4.30;;
2872;SDS011;1444;49.166;7.312;2022-07-17T04:47:49;4.80;;;4.40;;
2872;SDS011;1444;49.166;7.312;2022-07-17T04:50:16;3.87;;;3.57;;
2872;SDS011;1444;49.166;7.312;2022-07-17T04:52:42;5.17;;;4.77;;
2872;SDS011;1444;49.166;7.312;2022-07-17T04:55:09;3.70;;;2.93;;
2872;SDS011;1444;49.166;7.312;2022-07-17T04:57:36;8.27;;;4.43;;
2872;SDS011;1444;49.166;7.312;2022-07-17T05:00:03;4.07;;;2.80;;
2872;SDS011;1444;49.166;7.312;2022-07-17T05:02:30;6.47;;;3.53;;
2872;SDS011;1444;49.166;7.312;2022-07-17T05:04:58;6.70;;;3.60;;
2872;SDS011;1444;49.166;7.312;2022-07-17T05:07:25;7.30;;;4.07;;
2872;SDS011;1444;49.166;7.312;2022-07-17T05:09:52;5.50;;;4.97;;
2872;SDS011;1444;49.166;7.312;2022-07-17T05:12:19;3.63;;;3.20;;
2872;SDS011;1444;49.166;7.312;2022-07-17T05:14:45;11.00;;;4.70;;
2872;SDS011;1444;49.166;7.312;2022-07-17T05:17:13;3.90;;;3.47;;
2872;SDS011;1444;49.166;7.312;2022-07-17T05:19:40;5.30;;;4.90;;
2872;SDS011;1444;49.166;7.312;2022-07-17T05:22:08;3.73;;;3.00;;
2872;SDS011;1444;49.166;7.312;2022-07-17T05:24:35;3.60;;;3.20;;
2872;SDS011;1444;49.166;7.312;2022-07-17T05:27:01;9.17;;;3.50;;
2872;SDS011;1444;49.166;7.312;2022-07-17T05:29:28;5.73;;;3.13;;
2872;SDS011;1444;49.166;7.312;2022-07-17T05:31:55;4.50;;;3.30;;
2872;SDS011;1444;49.166;7.312;2022-07-17T05:34:21;4.70;;;3.17;;
2872;SDS011;1444;49.166;7.312;2022-07-17T05:36:48;5.20;;;4.20;;
2872;SDS011;1444;49.166;7.312;2022-07-17T05:39:16;4.27;;;3.87;;
2872;SDS011;1444;49.166;7.312;2022-07-17T05:41:43;18.03;;;4.67;;
2872;SDS011;1444;49.166;7.312;2022-07-17T05:44:10;4.50;;;2.73;;
2872;SDS011;1444;49.166;7.312;2022-07-17T05:46:36;4.03;;;3.20;;
2872;SDS011;1444;49.166;7.312;2022-07-17T05:49:03;3.80;;;2.57;;
2872;SDS011;1444;49.166;7.312;2022-07-17T05:51:30;9.00;;;3.17;;
2872;SDS011;1444;49.166;7.312;2022-07-17T05:53:57;4.57;;;2.77;;
2872;SDS011;1444;49.166;7.312;2022-07-17T05:56:25;2.93;;;2.43;;
2872;SDS011;1444;49.166;7.312;2022-07-17T05:58:51;4.77;;;3.30;;
2872;SDS011;1444;49.166;7.312;2022-07-17T06:01:18;4.93;;;3.00;;
2872;SDS011;1444;49.166;7.312;2022-07-17T06:03:45;6.53;;;2.93;;
2872;SDS011;1444;49.166;7.312;2022-07-17T06:06:11;3.40;;;2.87;;
2872;SDS011;1444;49.166;7.312;2022-07-17T06:08:38;7.90;;;3.00;;
2872;SDS011;1444;49.166;7.312;2022-07-17T06:11:05;3.90;;;2.00;;
2872;SDS011;1444;49.166;7.312;2022-07-17T06:13:34;3.70;;;2.17;;
2872;SDS011;1444;49.166;7.312;2022-07-17T06:16:01;21.37;;;3.13;;
2872;SDS011;1444;49.166;7.312;2022-07-17T06:18:28;3.13;;;2.23;;
2872;SDS011;1444;49.166;7.312;2022-07-17T06:20:54;2.83;;;2.43;;
2872;SDS011;1444;49.166;7.312;2022-07-17T06:23:21;4.20;;;2.10;;
2872;SDS011;1444;49.166;7.312;2022-07-17T06:25:48;4.20;;;2.60;;
2872;SDS011;1444;49.166;7.312;2022-07-17T06:28:15;6.63;;;1.77;;
2872;SDS011;1444;49.166;7.312;2022-07-17T06:30:43;4.73;;;2.67;;
2872;SDS011;1444;49.166;7.312;2022-07-17T06:33:10;3.50;;;1.83;;
2872;SDS011;1444;49.166;7.312;2022-07-17T06:35:37;2.80;;;1.90;;
2872;SDS011;1444;49.166;7.312;2022-07-17T06:38:03;4.30;;;2.37;;
2872;SDS011;1444;49.166;7.312;2022-07-17T06:40:30;3.70;;;2.20;;
2872;SDS011;1444;49.166;7.312;2022-07-17T06:42:57;4.93;;;2.97;;
2872;SDS011;1444;49.166;7.312;2022-07-17T06:45:23;3.07;;;2.03;;
2872;SDS011;1444;49.166;7.312;2022-07-17T06:47:52;2.80;;;2.20;;
2872;SDS011;1444;49.166;7.312;2022-07-17T06:50:19;3.17;;;2.17;;
2872;SDS011;1444;49.166;7.312;2022-07-17T06:52:46;3.60;;;2.70;;
2872;SDS011;1444;49.166;7.312;2022-07-17T06:55:12;2.30;;;1.97;;
2872;SDS011;1444;49.166;7.312;2022-07-17T06:57:39;2.90;;;2.10;;
2872;SDS011;1444;49.166;7.312;2022-07-17T07:00:06;2.43;;;1.80;;
2872;SDS011;1444;49.166;7.312;2022-07-17T07:02:34;3.97;;;1.97;;
2872;SDS011;1444;49.166;7.312;2022-07-17T07:05:03;3.40;;;2.00;;
2872;SDS011;1444;49.166;7.312;2022-07-17T07:07:30;3.73;;;2.07;;
2872;SDS011;1444;49.166;7.312;2022-07-17T07:09:57;2.47;;;2.20;;
2872;SDS011;1444;49.166;7.312;2022-07-17T07:12:24;5.43;;;2.60;;
2872;SDS011;1444;49.166;7.312;2022-07-17T07:14:50;6.20;;;2.00;;
2872;SDS011;1444;49.166;7.312;2022-07-17T07:17:17;3.30;;;2.30;;
2872;SDS011;1444;49.166;7.312;2022-07-17T07:19:44;4.37;;;2.00;;
2872;SDS011;1444;49.166;7.312;2022-07-17T07:22:12;5.03;;;1.83;;
2872;SDS011;1444;49.166;7.312;2022-07-17T07:24:39;4.03;;;2.10;;
2872;SDS011;1444;49.166;7.312;2022-07-17T07:27:06;4.27;;;1.90;;
2872;SDS011;1444;49.166;7.312;2022-07-17T07:29:32;2.53;;;1.87;;
2872;SDS011;1444;49.166;7.312;2022-07-17T07:31:59;5.87;;;2.63;;
2872;SDS011;1444;49.166;7.312;2022-07-17T07:34:26;4.63;;;1.67;;
2872;SDS011;1444;49.166;7.312;2022-07-17T07:36:53;3.33;;;2.00;;
2872;SDS011;1444;49.166;7.312;2022-07-17T07:39:21;4.00;;;2.00;;
2872;SDS011;1444;49.166;7.312;2022-07-17T07:41:48;5.07;;;1.90;;
2872;SDS011;1444;49.166;7.312;2022-07-17T07:44:15;3.13;;;1.87;;
2872;SDS011;1444;49.166;7.312;2022-07-17T07:46:43;4.70;;;2.30;;
2872;SDS011;1444;49.166;7.312;2022-07-17T07:49:10;1.80;;;1.07;;
2872;SDS011;1444;49.166;7.312;2022-07-17T07:51:37;4.53;;;1.97;;
2872;SDS011;1444;49.166;7.312;2022-07-17T07:54:04;6.03;;;1.77;;
2872;SDS011;1444;49.166;7.312;2022-07-17T07:56:32;3.50;;;1.90;;
2872;SDS011;1444;49.166;7.312;2022-07-17T07:58:58;3.67;;;2.20;;
2872;SDS011;1444;49.166;7.312;2022-07-17T08:01:25;2.63;;;1.50;;
2872;SDS011;1444;49.166;7.312;2022-07-17T08:03:52;5.53;;;3.17;;
2872;SDS011;1444;49.166;7.312;2022-07-17T08:06:19;4.13;;;2.20;;
2872;SDS011;1444;49.166;7.312;2022-07-17T08:08:45;2.97;;;1.77;;
2872;SDS011;1444;49.166;7.312;2022-07-17T08:11:12;2.80;;;1.70;;
2872;SDS011;1444;49.166;7.312;2022-07-17T08:13:41;7.30;;;2.43;;
2872;SDS011;1444;49.166;7.312;2022-07-17T08:16:08;5.03;;;1.87;;
2872;SDS011;1444;49.166;7.312;2022-07-17T08:18:35;2.97;;;1.87;;
2872;SDS011;1444;49.166;7.312;2022-07-17T08:21:01;2.83;;;1.80;;
2872;SDS011;1444;49.166;7.312;2022-07-17T08:23:28;2.97;;;1.90;;
2872;SDS011;1444;49.166;7.312;2022-07-17T08:25:55;5.20;;;1.93;;
2872;SDS011;1444;49.166;7.312;2022-07-17T08:28:22;2.40;;;1.50;;
2872;SDS011;1444;49.166;7.312;2022-07-17T08:30:50;2.83;;;2.00;;
2872;SDS011;1444;49.166;7.312;2022-07-17T08:33:17;7.27;;;1.83;;
2872;SDS011;1444;49.166;7.312;2022-07-17T08:35:44;5.30;;;2.50;;
2872;SDS011;1444;49.166;7.312;2022-07-17T08:38:11;5.60;;;2.20;;
2872;SDS011;1444;49.166;7.312;2022-07-17T08:40:37;3.40;;;1.57;;
2872;SDS011;1444;49.166;7.312;2022-07-17T08:43:06;4.37;;;1.93;;
2872;SDS011;1444;49.166;7.312;2022-07-17T08:45:34;2.97;;;2.67;;
2872;SDS011;1444;49.166;7.312;2022-07-17T08:48:03;5.90;;;2.27;;
2872;SDS011;1444;49.166;7.312;2022-07-17T08:50:31;5.87;;;2.13;;
2872;SDS011;1444;49.166;7.312;2022-07-17T08:52:59;11.80;;;2.43;;
2872;SDS011;1444;49.166;7.312;2022-07-17T08:55:27;3.30;;;2.30;;
2872;SDS011;1444;49.166;7.312;2022-07-17T08:57:54;5.33;;;2.57;;
2872;SDS011;1444;49.166;7.312;2022-07-17T09:00:21;2.70;;;1.90;;
2872;SDS011;1444;49.166;7.312;2022-07-17T09:02:52;3.70;;;2.20;;
2872;SDS011;1444;49.166;7.312;2022-07-17T09:05:23;2.87;;;1.87;;
2872;SDS011;1444;49.166;7.312;2022-07-17T09:07:51;4.73;;;2.43;;
2872;SDS011;1444;49.166;7.312;2022-07-17T09:10:17;3.00;;;1.53;;
2872;SDS011;1444;49.166;7.312;2022-07-17T09:12:44;3.50;;;2.30;;
2872;SDS011;1444;49.166;7.312;2022-07-17T09:15:15;3.90;;;2.03;;
2872;SDS011;1444;49.166;7.312;2022-07-17T09:17:49;5.63;;;2.60;;
2872;SDS011;1444;49.166;7.312;2022-07-17T09:20:16;2.30;;;1.67;;
2872;SDS011;1444;49.166;7.312;2022-07-17T09:22:45;3.43;;;2.10;;
2872;SDS011;1444;49.166;7.312;2022-07-17T09:25:30;3.37;;;2.10;;
2872;SDS011;1444;49.166;7.312;2022-07-17T09:27:59;2.33;;;1.47;;
2872;SDS011;1444;49.166;7.312;2022-07-17T09:30:27;2.63;;;1.90;;
2872;SDS011;1444;49.166;7.312;2022-07-17T09:32:54;2.43;;;1.83;;
2872;SDS011;1444;49.166;7.312;2022-07-17T09:35:22;2.67;;;1.97;;
2872;SDS011;1444;49.166;7.312;2022-07-17T09:37:52;2.40;;;2.10;;
2872;SDS011;1444;49.166;7.312;2022-07-17T09:40:20;4.70;;;1.87;;
2872;SDS011;1444;49.166;7.312;2022-07-17T09:43:05;4.33;;;1.90;;
2872;SDS011;1444;49.166;7.312;2022-07-17T09:45:33;2.10;;;1.60;;
2872;SDS011;1444;49.166;7.312;2022-07-17T09:48:01;1.90;;;1.40;;
2872;SDS011;1444;49.166;7.312;2022-07-17T09:50:28;2.40;;;1.37;;
2872;SDS011;1444;49.166;7.312;2022-07-17T09:52:57;5.80;;;2.07;;
2872;SDS011;1444;49.166;7.312;2022-07-17T09:55:26;3.90;;;1.60;;
2872;SDS011;1444;49.166;7.312;2022-07-17T09:57:56;2.00;;;1.37;;
2872;SDS011;1444;49.166;7.312;2022-07-17T10:00:24;2.30;;;1.87;;
2872;SDS011;1444;49.166;7.312;2022-07-17T10:02:51;2.57;;;1.77;;
2872;SDS011;1444;49.166;7.312;2022-07-17T10:05:19;4.93;;;1.70;;
2872;SDS011;1444;49.166;7.312;2022-07-17T10:07:46;4.10;;;2.03;;
2872;SDS011;1444;49.166;7.312;2022-07-17T10:10:16;2.20;;;1.63;;
2872;SDS011;1444;49.166;7.312;2022-07-17T10:12:44;5.03;;;1.30;;
2872;SDS011;1444;49.166;7.312;2022-07-17T10:15:15;5.53;;;1.83;;
2872;SDS011;1444;49.166;7.312;2022-07-17T10:17:45;1.90;;;1.50;;
2872;SDS011;1444;49.166;7.312;2022-07-17T10:20:12;1.90;;;1.50;;
2872;SDS011;1444;49.166;7.312;2022-07-17T10:22:43;2.13;;;1.53;;
2872;SDS011;1444;49.166;7.312;2022-07-17T10:25:12;2.20;;;1.93;;
2872;SDS011;1444;49.166;7.312;2022-07-17T10:27:47;3.30;;;1.80;;
2872;SDS011;1444;49.166;7.312;2022-07-17T10:30:18;2.63;;;1.97;;
2872;SDS011;1444;49.166;7.312;2022-07-17T10:32:52;2.30;;;1.80;;
2872;SDS011;1444;49.166;7.312;2022-07-17T10:35:20;5.93;;;2.13;;
2872;SDS011;1444;49.166;7.312;2022-07-17T10:37:47;5.60;;;2.20;;
2872;SDS011;1444;49.166;7.312;2022-07-17T10:40:15;4.10;;;1.50;;
2872;SDS011;1444;49.166;7.312;2022-07-17T10:45:29;2.50;;;1.80;;
2872;SDS011;1444;49.166;7.312;2022-07-17T10:48:01;3.50;;;1.57;;
2872;SDS011;1444;49.166;7.312;2022-07-17T10:50:31;3.03;;;1.73;;
2872;SDS011;1444;49.166;7.312;2022-07-17T10:53:04;2.47;;;1.37;;
2872;SDS011;1444;49.166;7.312;2022-07-17T10:55:33;2.23;;;1.77;;
2872;SDS011;1444;49.166;7.312;2022-07-17T10:58:02;3.27;;;1.50;;
2872;SDS011;1444;49.166;7.312;2022-07-17T11:00:29;3.50;;;1.53;;
2872;SDS011;1444;49.166;7.312;2022-07-17T11:02:56;3.23;;;1.73;;
2872;SDS011;1444;49.166;7.312;2022-07-17T11:05:33;2.70;;;1.30;;
2872;SDS011;1444;49.166;7.312;2022-07-17T11:08:00;2.73;;;1.47;;
2872;SDS011;1444;49.166;7.312;2022-07-17T11:10:28;3.23;;;1.30;;
2872;SDS011;1444;49.166;7.312;2022-07-17T11:12:55;2.40;;;1.80;;
2872;SDS011;1444;49.166;7.312;2022-07-17T11:15:39;8.10;;;1.60;;
2872;SDS011;1444;49.166;7.312;2022-07-17T11:18:11;2.10;;;1.70;;
2872;SDS011;1444;49.166;7.312;2022-07-17T11:20:51;2.80;;;1.40;;
2872;SDS011;1444;49.166;7.312;2022-07-17T11:23:19;1.87;;;1.30;;
2872;SDS011;1444;49.166;7.312;2022-07-17T11:25:53;3.30;;;1.27;;
2872;SDS011;1444;49.166;7.312;2022-07-17T11:28:30;2.13;;;1.30;;
2872;SDS011;1444;49.166;7.312;2022-07-17T11:30:59;1.80;;;1.20;;
2872;SDS011;1444;49.166;7.312;2022-07-17T11:33:27;5.70;;;1.40;;
2872;SDS011;1444;49.166;7.312;2022-07-17T11:35:53;3.77;;;1.73;;
2872;SDS011;1444;49.166;7.312;2022-07-17T11:38:27;1.90;;;1.10;;
2872;SDS011;1444;49.166;7.312;2022-07-17T11:40:54;1.80;;;1.30;;
2872;SDS011;1444;49.166;7.312;2022-07-17T11:43:22;2.40;;;1.40;;
2872;SDS011;1444;49.166;7.312;2022-07-17T11:45:50;2.23;;;1.63;;
2872;SDS011;1444;49.166;7.312;2022-07-17T11:48:17;2.83;;;1.40;;
2872;SDS011;1444;49.166;7.312;2022-07-17T11:50:53;3.00;;;2.70;;
2872;SDS011;1444;49.166;7.312;2022-07-17T11:53:30;2.07;;;1.47;;
2872;SDS011;1444;49.166;7.312;2022-07-17T11:55:58;2.53;;;1.17;;
2872;SDS011;1444;49.166;7.312;2022-07-17T11:58:25;2.20;;;1.50;;
2872;SDS011;1444;49.166;7.312;2022-07-17T12:01:01;2.57;;;1.90;;
2872;SDS011;1444;49.166;7.312;2022-07-17T12:03:28;1.97;;;1.27;;
2872;SDS011;1444;49.166;7.312;2022-07-17T12:05:55;2.50;;;1.67;;
2872;SDS011;1444;49.166;7.312;2022-07-17T12:08:23;1.90;;;1.57;;
2872;SDS011;1444;49.166;7.312;2022-07-17T12:10:59;2.43;;;1.67;;
2872;SDS011;1444;49.166;7.312;2022-07-17T12:13:36;2.60;;;1.53;;
2872;SDS011;1444;49.166;7.312;2022-07-17T12:16:24;2.43;;;1.63;;
2872;SDS011;1444;49.166;7.312;2022-07-17T12:19:00;2.27;;;1.90;;
2872;SDS011;1444;49.166;7.312;2022-07-17T12:21:30;3.03;;;1.80;;
2872;SDS011;1444;49.166;7.312;2022-07-17T12:23:59;3.63;;;1.37;;
2872;SDS011;1444;49.166;7.312;2022-07-17T12:26:28;3.27;;;1.60;;
2872;SDS011;1444;49.166;7.312;2022-07-17T12:28:55;2.67;;;1.73;;
2872;SDS011;1444;49.166;7.312;2022-07-17T12:31:21;5.30;;;1.50;;
2872;SDS011;1444;49.166;7.312;2022-07-17T12:33:50;2.93;;;1.30;;
2872;SDS011;1444;49.166;7.312;2022-07-17T12:36:19;2.30;;;1.40;;
2872;SDS011;1444;49.166;7.312;2022-07-17T12:38:46;2.97;;;1.40;;
2872;SDS011;1444;49.166;7.312;2022-07-17T12:41:13;1.70;;;1.10;;
2872;SDS011;1444;49.166;7.312;2022-07-17T12:43:40;2.23;;;1.60;;
2872;SDS011;1444;49.166;7.312;2022-07-17T12:46:07;3.80;;;1.70;;
2872;SDS011;1444;49.166;7.312;2022-07-17T12:48:36;2.40;;;1.27;;
2872;SDS011;1444;49.166;7.312;2022-07-17T12:51:05;2.93;;;1.97;;
2872;SDS011;1444;49.166;7.312;2022-07-17T12:53:32;2.90;;;1.13;;
2872;SDS011;1444;49.166;7.312;2022-07-17T12:56:00;2.10;;;1.30;;
2872;SDS011;1444;49.166;7.312;2022-07-17T12:58:27;2.00;;;1.50;;
2872;SDS011;1444;49.166;7.312;2022-07-17T13:00:53;1.90;;;1.50;;
2872;SDS011;1444;49.166;7.312;2022-07-17T13:03:20;1.80;;;1.20;;
2872;SDS011;1444;49.166;7.312;2022-07-17T13:05:48;2.37;;;1.20;;
2872;SDS011;1444;49.166;7.312;2022-07-17T13:08:15;6.60;;;1.60;;
2872;SDS011;1444;49.166;7.312;2022-07-17T13:10:42;2.87;;;1.50;;
2872;SDS011;1444;49.166;7.312;2022-07-17T13:13:09;1.90;;;1.20;;
2872;SDS011;1444;49.166;7.312;2022-07-17T13:15:36;1.90;;;1.30;;
2872;SDS011;1444;49.166;7.312;2022-07-17T13:18:03;2.10;;;1.37;;
2872;SDS011;1444;49.166;7.312;2022-07-17T13:20:29;2.20;;;1.20;;
2872;SDS011;1444;49.166;7.312;2022-07-17T13:22:57;2.27;;;1.50;;
2872;SDS011;1444;49.166;7.312;2022-07-17T13:25:24;3.00;;;1.63;;
2872;SDS011;1444;49.166;7.312;2022-07-17T13:27:51;2.63;;;1.37;;
2872;SDS011;1444;49.166;7.312;2022-07-17T13:30:18;2.30;;;1.23;;
2872;SDS011;1444;49.166;7.312;2022-07-17T13:32:44;2.20;;;1.40;;
2872;SDS011;1444;49.166;7.312;2022-07-17T13:35:11;2.90;;;1.70;;
2872;SDS011;1444;49.166;7.312;2022-07-17T13:37:38;2.87;;;1.30;;
2872;SDS011;1444;49.166;7.312;2022-07-17T13:40:07;2.40;;;1.87;;
2872;SDS011;1444;49.166;7.312;2022-07-17T13:42:34;2.20;;;1.50;;
2872;SDS011;1444;49.166;7.312;2022-07-17T13:45:01;2.10;;;1.43;;
2872;SDS011;1444;49.166;7.312;2022-07-17T13:47:28;3.27;;;2.00;;
2872;SDS011;1444;49.166;7.312;2022-07-17T13:49:55;2.43;;;2.13;;
2872;SDS011;1444;49.166;7.312;2022-07-17T13:52:22;4.73;;;2.30;;
2872;SDS011;1444;49.166;7.312;2022-07-17T13:54:49;3.47;;;1.60;;
2872;SDS011;1444;49.166;7.312;2022-07-17T13:57:17;2.00;;;1.60;;
2872;SDS011;1444;49.166;7.312;2022-07-17T13:59:44;2.30;;;1.60;;
2872;SDS011;1444;49.166;7.312;2022-07-17T14:02:10;4.60;;;1.67;;
2872;SDS011;1444;49.166;7.312;2022-07-17T14:04:37;2.20;;;1.10;;
2872;SDS011;1444;49.166;7.312;2022-07-17T14:07:05;1.70;;;0.97;;
2872;SDS011;1444;49.166;7.312;2022-07-17T14:09:32;3.63;;;1.67;;
2872;SDS011;1444;49.166;7.312;2022-07-17T14:11:59;1.80;;;1.20;;
2872;SDS011;1444;49.166;7.312;2022-07-17T14:14:28;2.20;;;1.27;;
2872;SDS011;1444;49.166;7.312;2022-07-17T14:16:55;2.40;;;1.43;;
2872;SDS011;1444;49.166;7.312;2022-07-17T14:19:22;2.87;;;1.40;;
2872;SDS011;1444;49.166;7.312;2022-07-17T14:21:49;5.13;;;1.73;;
2872;SDS011;1444;49.166;7.312;2022-07-17T14:24:16;3.93;;;1.60;;
2872;SDS011;1444;49.166;7.312;2022-07-17T14:26:43;3.33;;;1.60;;
2872;SDS011;1444;49.166;7.312;2022-07-17T14:29:12;2.50;;;1.60;;
2872;SDS011;1444;49.166;7.312;2022-07-17T14:31:40;2.10;;;1.70;;
2872;SDS011;1444;49.166;7.312;2022-07-17T14:34:08;2.43;;;1.50;;
2872;SDS011;1444;49.166;7.312;2022-07-17T14:36:35;3.67;;;1.47;;
2872;SDS011;1444;49.166;7.312;2022-07-17T14:39:02;2.13;;;1.30;;
2872;SDS011;1444;49.166;7.312;2022-07-17T14:41:29;2.00;;;1.37;;
2872;SDS011;1444;49.166;7.312;2022-07-17T14:43:56;2.83;;;1.73;;
2872;SDS011;1444;49.166;7.312;2022-07-17T14:46:23;1.90;;;1.60;;
2872;SDS011;1444;49.166;7.312;2022-07-17T14:48:52;3.13;;;1.20;;
2872;SDS011;1444;49.166;7.312;2022-07-17T14:51:18;7.40;;;1.97;;
2872;SDS011;1444;49.166;7.312;2022-07-17T14:53:45;4.77;;;2.33;;
2872;SDS011;1444;49.166;7.312;2022-07-17T14:56:12;1.70;;;1.00;;
2872;SDS011;1444;49.166;7.312;2022-07-17T14:58:39;3.40;;;1.57;;
2872;SDS011;1444;49.166;7.312;2022-07-17T15:01:06;4.10;;;1.50;;
2872;SDS011;1444;49.166;7.312;2022-07-17T15:03:33;2.30;;;1.77;;
2872;SDS011;1444;49.166;7.312;2022-07-17T15:06:01;1.90;;;1.27;;
2872;SDS011;1444;49.166;7.312;2022-07-17T15:08:28;2.20;;;1.50;;
2872;SDS011;1444;49.166;7.312;2022-07-17T15:10:55;1.80;;;1.37;;
2872;SDS011;1444;49.166;7.312;2022-07-17T15:13:22;2.50;;;1.30;;
2872;SDS011;1444;49.166;7.312;2022-07-17T15:15:49;2.10;;;1.53;;
2872;SDS011;1444;49.166;7.312;2022-07-17T15:18:16;7.83;;;2.20;;
2872;SDS011;1444;49.166;7.312;2022-07-17T15:20:42;2.30;;;1.87;;